sensor_id;sensor_type;location;lat;lon;timestamp;P1;durP1;ratioP1;P2;durP2;ratioP2
13985;SDS011;7067;51.832;8.296;2023-02-22T00:01:14;86.90;;;31.20;;
13985;SDS011;7067;51.832;8.296;2023-02-22T00:03:47;63.35;;;28.85;;
13985;SDS011;7067;51.832;8.296;2023-02-22T00:06:15;68.20;;;30.23;;
13985;SDS011;7067;51.832;8.296;2023-02-22T00:08:41;60.60;;;29.30;;
13985;SDS011;7067;51.832;8.296;2023-02-22T00:11:07;138.77;;;35.40;;
13985;SDS011;7067;51.832;8.296;2023-02-22T00:13:33;57.45;;;27.90;;
13985;SDS011;7067;51.832;8.296;2023-02-22T00:15:58;61.72;;;29.92;;
13985;SDS011;7067;51.832;8.296;2023-02-22T00:18:24;91.75;;;31.52;;
13985;SDS011;7067;51.832;8.296;2023-02-22T00:20:54;65.68;;;30.27;;
13985;SDS011;7067;51.832;8.296;2023-02-22T00:23:20;141.68;;;34.42;;
13985;SDS011;7067;51.832;8.296;2023-02-22T00:25:47;124.22;;;30.92;;
13985;SDS011;7067;51.832;8.296;2023-02-22T00:28:14;68.13;;;32.00;;
13985;SDS011;7067;51.832;8.296;2023-02-22T00:30:41;59.95;;;29.63;;
13985;SDS011;7067;51.832;8.296;2023-02-22T00:33:07;61.85;;;28.90;;
13985;SDS011;7067;51.832;8.296;2023-02-22T00:35:33;133.75;;;34.42;;
13985;SDS011;7067;51.832;8.296;2023-02-22T00:37:59;98.78;;;30.33;;
13985;SDS011;7067;51.832;8.296;2023-02-22T00:40:26;78.55;;;28.58;;
13985;SDS011;7067;51.832;8.296;2023-02-22T00:42:59;119.20;;;31.83;;
13985;SDS011;7067;51.832;8.296;2023-02-22T00:45:26;159.18;;;32.72;;
13985;SDS011;7067;51.832;8.296;2023-02-22T00:47:52;84.63;;;29.08;;
13985;SDS011;7067;51.832;8.296;2023-02-22T00:50:21;72.13;;;30.17;;
13985;SDS011;7067;51.832;8.296;2023-02-22T00:52:48;66.35;;;31.35;;
13985;SDS011;7067;51.832;8.296;2023-02-22T00:55:15;76.85;;;29.35;;
13985;SDS011;7067;51.832;8.296;2023-02-22T00:57:44;194.63;;;28.83;;
13985;SDS011;7067;51.832;8.296;2023-02-22T01:00:13;56.80;;;25.75;;
13985;SDS011;7067;51.832;8.296;2023-02-22T01:02:42;57.00;;;24.88;;
13985;SDS011;7067;51.832;8.296;2023-02-22T01:05:08;64.05;;;27.58;;
13985;SDS011;7067;51.832;8.296;2023-02-22T01:07:38;87.03;;;22.63;;
13985;SDS011;7067;51.832;8.296;2023-02-22T01:10:05;94.45;;;30.83;;
13985;SDS011;7067;51.832;8.296;2023-02-22T01:12:32;306.25;;;37.78;;
13985;SDS011;7067;51.832;8.296;2023-02-22T01:14:58;50.40;;;26.52;;
13985;SDS011;7067;51.832;8.296;2023-02-22T01:17:23;61.83;;;24.90;;
13985;SDS011;7067;51.832;8.296;2023-02-22T01:19:50;56.30;;;27.38;;
13985;SDS011;7067;51.832;8.296;2023-02-22T01:22:16;278.27;;;31.95;;
13985;SDS011;7067;51.832;8.296;2023-02-22T01:24:41;152.27;;;32.15;;
13985;SDS011;7067;51.832;8.296;2023-02-22T01:27:07;219.75;;;33.25;;
13985;SDS011;7067;51.832;8.296;2023-02-22T01:29:32;56.28;;;25.98;;
13985;SDS011;7067;51.832;8.296;2023-02-22T01:31:57;53.42;;;24.35;;
13985;SDS011;7067;51.832;8.296;2023-02-22T01:34:23;57.70;;;26.15;;
13985;SDS011;7067;51.832;8.296;2023-02-22T01:36:49;123.40;;;28.38;;
13985;SDS011;7067;51.832;8.296;2023-02-22T01:39:15;62.85;;;24.65;;
13985;SDS011;7067;51.832;8.296;2023-02-22T01:41:42;47.72;;;24.88;;
13985;SDS011;7067;51.832;8.296;2023-02-22T01:46:58;69.22;;;28.00;;
13985;SDS011;7067;51.832;8.296;2023-02-22T01:49:42;61.70;;;22.67;;
13985;SDS011;7067;51.832;8.296;2023-02-22T01:52:13;345.38;;;32.60;;
13985;SDS011;7067;51.832;8.296;2023-02-22T01:54:43;52.65;;;26.08;;
13985;SDS011;7067;51.832;8.296;2023-02-22T01:57:19;64.82;;;27.65;;
13985;SDS011;7067;51.832;8.296;2023-02-22T01:59:50;54.28;;;24.23;;
13985;SDS011;7067;51.832;8.296;2023-02-22T02:02:17;50.30;;;22.50;;
13985;SDS011;7067;51.832;8.296;2023-02-22T02:04:43;79.07;;;24.23;;
13985;SDS011;7067;51.832;8.296;2023-02-22T02:07:10;106.20;;;23.55;;
13985;SDS011;7067;51.832;8.296;2023-02-22T02:09:55;62.05;;;19.45;;
13985;SDS011;7067;51.832;8.296;2023-02-22T02:12:22;121.65;;;22.05;;
13985;SDS011;7067;51.832;8.296;2023-02-22T02:14:48;102.22;;;20.30;;
13985;SDS011;7067;51.832;8.296;2023-02-22T02:17:14;80.57;;;17.52;;
13985;SDS011;7067;51.832;8.296;2023-02-22T02:22:22;111.22;;;19.00;;
13985;SDS011;7067;51.832;8.296;2023-02-22T02:30:21;83.20;;;20.52;;
13985;SDS011;7067;51.832;8.296;2023-02-22T02:32:51;86.55;;;23.80;;
13985;SDS011;7067;51.832;8.296;2023-02-22T02:38:00;74.38;;;22.85;;
13985;SDS011;7067;51.832;8.296;2023-02-22T02:40:29;208.00;;;26.15;;
13985;SDS011;7067;51.832;8.296;2023-02-22T02:43:25;208.02;;;23.90;;
13985;SDS011;7067;51.832;8.296;2023-02-22T02:48:41;143.18;;;25.65;;
13985;SDS011;7067;51.832;8.296;2023-02-22T02:51:10;174.75;;;24.15;;
13985;SDS011;7067;51.832;8.296;2023-02-22T02:53:38;157.70;;;24.30;;
13985;SDS011;7067;51.832;8.296;2023-02-22T02:56:06;160.57;;;26.48;;
13985;SDS011;7067;51.832;8.296;2023-02-22T02:58:31;104.60;;;24.45;;
13985;SDS011;7067;51.832;8.296;2023-02-22T03:00:59;114.43;;;26.45;;
13985;SDS011;7067;51.832;8.296;2023-02-22T03:11:28;203.27;;;34.75;;
13985;SDS011;7067;51.832;8.296;2023-02-22T03:14:26;144.05;;;29.05;;
13985;SDS011;7067;51.832;8.296;2023-02-22T03:19:50;108.72;;;30.05;;
13985;SDS011;7067;51.832;8.296;2023-02-22T03:22:27;60.83;;;24.30;;
13985;SDS011;7067;51.832;8.296;2023-02-22T03:25:00;182.73;;;31.27;;
13985;SDS011;7067;51.832;8.296;2023-02-22T03:27:36;62.08;;;22.20;;
13985;SDS011;7067;51.832;8.296;2023-02-22T03:30:08;219.23;;;39.00;;
13985;SDS011;7067;51.832;8.296;2023-02-22T03:32:37;77.50;;;23.08;;
13985;SDS011;7067;51.832;8.296;2023-02-22T03:35:10;80.65;;;24.27;;
13985;SDS011;7067;51.832;8.296;2023-02-22T03:37:43;69.35;;;25.23;;
13985;SDS011;7067;51.832;8.296;2023-02-22T03:40:11;208.43;;;36.90;;
13985;SDS011;7067;51.832;8.296;2023-02-22T03:42:40;214.57;;;34.35;;
13985;SDS011;7067;51.832;8.296;2023-02-22T03:45:09;243.48;;;39.25;;
13985;SDS011;7067;51.832;8.296;2023-02-22T03:47:38;86.20;;;23.02;;
13985;SDS011;7067;51.832;8.296;2023-02-22T03:52:33;214.20;;;35.67;;
13985;SDS011;7067;51.832;8.296;2023-02-22T03:54:59;71.13;;;22.20;;
13985;SDS011;7067;51.832;8.296;2023-02-22T03:57:25;107.82;;;26.63;;
13985;SDS011;7067;51.832;8.296;2023-02-22T03:59:52;109.50;;;25.95;;
13985;SDS011;7067;51.832;8.296;2023-02-22T04:02:17;457.13;;;61.50;;
13985;SDS011;7067;51.832;8.296;2023-02-22T04:04:43;109.38;;;25.90;;
13985;SDS011;7067;51.832;8.296;2023-02-22T04:07:12;163.13;;;36.20;;
13985;SDS011;7067;51.832;8.296;2023-02-22T04:09:37;290.63;;;45.90;;
13985;SDS011;7067;51.832;8.296;2023-02-22T04:12:03;36.10;;;19.65;;
13985;SDS011;7067;51.832;8.296;2023-02-22T04:14:28;383.25;;;55.78;;
13985;SDS011;7067;51.832;8.296;2023-02-22T04:16:54;241.90;;;41.70;;
13985;SDS011;7067;51.832;8.296;2023-02-22T04:19:19;301.67;;;46.25;;
13985;SDS011;7067;51.832;8.296;2023-02-22T04:21:44;330.05;;;55.97;;
13985;SDS011;7067;51.832;8.296;2023-02-22T04:24:10;220.50;;;41.25;;
13985;SDS011;7067;51.832;8.296;2023-02-22T04:26:35;76.30;;;21.55;;
13985;SDS011;7067;51.832;8.296;2023-02-22T04:29:01;63.17;;;21.63;;
13985;SDS011;7067;51.832;8.296;2023-02-22T04:31:28;44.58;;;19.95;;
13985;SDS011;7067;51.832;8.296;2023-02-22T04:33:53;33.80;;;19.38;;
13985;SDS011;7067;51.832;8.296;2023-02-22T04:36:19;152.80;;;29.23;;
13985;SDS011;7067;51.832;8.296;2023-02-22T04:38:45;60.53;;;22.45;;
13985;SDS011;7067;51.832;8.296;2023-02-22T04:41:11;44.83;;;19.35;;
13985;SDS011;7067;51.832;8.296;2023-02-22T04:43:36;49.23;;;22.13;;
13985;SDS011;7067;51.832;8.296;2023-02-22T04:46:02;98.47;;;26.50;;
13985;SDS011;7067;51.832;8.296;2023-02-22T04:48:28;56.75;;;20.92;;
13985;SDS011;7067;51.832;8.296;2023-02-22T04:50:53;63.85;;;20.65;;
13985;SDS011;7067;51.832;8.296;2023-02-22T04:53:19;27.73;;;17.93;;
13985;SDS011;7067;51.832;8.296;2023-02-22T04:55:44;27.50;;;18.27;;
13985;SDS011;7067;51.832;8.296;2023-02-22T04:58:09;25.23;;;18.50;;
13985;SDS011;7067;51.832;8.296;2023-02-22T05:00:35;35.17;;;17.93;;
13985;SDS011;7067;51.832;8.296;2023-02-22T05:03:00;34.83;;;17.90;;
13985;SDS011;7067;51.832;8.296;2023-02-22T05:05:26;44.67;;;21.02;;
13985;SDS011;7067;51.832;8.296;2023-02-22T05:07:51;46.53;;;18.60;;
13985;SDS011;7067;51.832;8.296;2023-02-22T05:10:17;41.07;;;18.47;;
13985;SDS011;7067;51.832;8.296;2023-02-22T05:12:43;31.87;;;18.23;;
13985;SDS011;7067;51.832;8.296;2023-02-22T05:15:08;27.47;;;18.27;;
13985;SDS011;7067;51.832;8.296;2023-02-22T05:17:34;25.73;;;17.33;;
13985;SDS011;7067;51.832;8.296;2023-02-22T05:20:00;35.60;;;17.70;;
13985;SDS011;7067;51.832;8.296;2023-02-22T05:22:27;40.07;;;17.77;;
13985;SDS011;7067;51.832;8.296;2023-02-22T05:24:52;34.87;;;17.37;;
13985;SDS011;7067;51.832;8.296;2023-02-22T05:27:18;46.50;;;20.13;;
13985;SDS011;7067;51.832;8.296;2023-02-22T05:29:43;140.63;;;24.47;;
13985;SDS011;7067;51.832;8.296;2023-02-22T05:32:08;97.63;;;23.50;;
13985;SDS011;7067;51.832;8.296;2023-02-22T05:34:36;57.47;;;19.37;;
13985;SDS011;7067;51.832;8.296;2023-02-22T05:37:01;63.70;;;21.17;;
13985;SDS011;7067;51.832;8.296;2023-02-22T05:39:27;81.83;;;22.50;;
13985;SDS011;7067;51.832;8.296;2023-02-22T05:41:53;73.70;;;22.33;;
13985;SDS011;7067;51.832;8.296;2023-02-22T05:44:18;45.57;;;18.93;;
13985;SDS011;7067;51.832;8.296;2023-02-22T05:46:43;21.85;;;15.20;;
13985;SDS011;7067;51.832;8.296;2023-02-22T05:49:09;21.97;;;17.07;;
13985;SDS011;7067;51.832;8.296;2023-02-22T05:51:34;31.17;;;16.17;;
13985;SDS011;7067;51.832;8.296;2023-02-22T05:53:59;19.20;;;16.80;;
13985;SDS011;7067;51.832;8.296;2023-02-22T05:56:26;27.17;;;17.50;;
13985;SDS011;7067;51.832;8.296;2023-02-22T05:58:52;23.87;;;14.43;;
13985;SDS011;7067;51.832;8.296;2023-02-22T06:01:18;19.43;;;16.43;;
13985;SDS011;7067;51.832;8.296;2023-02-22T06:03:47;24.30;;;15.07;;
13985;SDS011;7067;51.832;8.296;2023-02-22T06:06:13;21.10;;;15.60;;
13985;SDS011;7067;51.832;8.296;2023-02-22T06:08:39;24.30;;;14.53;;
13985;SDS011;7067;51.832;8.296;2023-02-22T06:11:04;26.67;;;16.63;;
13985;SDS011;7067;51.832;8.296;2023-02-22T06:13:30;28.27;;;14.97;;
13985;SDS011;7067;51.832;8.296;2023-02-22T06:15:55;21.30;;;14.70;;
13985;SDS011;7067;51.832;8.296;2023-02-22T06:18:20;45.20;;;16.67;;
13985;SDS011;7067;51.832;8.296;2023-02-22T06:20:46;19.50;;;14.70;;
13985;SDS011;7067;51.832;8.296;2023-02-22T06:23:11;20.57;;;13.43;;
13985;SDS011;7067;51.832;8.296;2023-02-22T06:25:36;30.90;;;15.97;;
13985;SDS011;7067;51.832;8.296;2023-02-22T06:28:02;27.30;;;16.37;;
13985;SDS011;7067;51.832;8.296;2023-02-22T06:30:28;32.43;;;15.40;;
13985;SDS011;7067;51.832;8.296;2023-02-22T06:32:54;46.37;;;16.90;;
13985;SDS011;7067;51.832;8.296;2023-02-22T06:35:20;27.37;;;15.73;;
13985;SDS011;7067;51.832;8.296;2023-02-22T06:37:45;20.87;;;14.97;;
13985;SDS011;7067;51.832;8.296;2023-02-22T06:40:11;16.53;;;13.60;;
13985;SDS011;7067;51.832;8.296;2023-02-22T06:42:37;28.00;;;14.73;;
13985;SDS011;7067;51.832;8.296;2023-02-22T06:45:03;40.40;;;14.97;;
13985;SDS011;7067;51.832;8.296;2023-02-22T06:47:28;22.90;;;13.77;;
13985;SDS011;7067;51.832;8.296;2023-02-22T06:49:54;26.43;;;15.17;;
13985;SDS011;7067;51.832;8.296;2023-02-22T06:52:20;16.67;;;13.73;;
13985;SDS011;7067;51.832;8.296;2023-02-22T06:54:46;40.83;;;18.53;;
13985;SDS011;7067;51.832;8.296;2023-02-22T06:57:12;23.83;;;15.33;;
13985;SDS011;7067;51.832;8.296;2023-02-22T06:59:37;16.27;;;14.23;;
13985;SDS011;7067;51.832;8.296;2023-02-22T07:02:02;18.50;;;14.90;;
13985;SDS011;7067;51.832;8.296;2023-02-22T07:04:28;17.73;;;13.20;;
13985;SDS011;7067;51.832;8.296;2023-02-22T07:06:54;16.30;;;13.63;;
13985;SDS011;7067;51.832;8.296;2023-02-22T07:09:19;18.83;;;15.27;;
13985;SDS011;7067;51.832;8.296;2023-02-22T07:11:44;16.23;;;14.53;;
13985;SDS011;7067;51.832;8.296;2023-02-22T07:14:10;18.37;;;14.53;;
13985;SDS011;7067;51.832;8.296;2023-02-22T07:16:35;15.10;;;13.67;;
13985;SDS011;7067;51.832;8.296;2023-02-22T07:19:00;15.37;;;13.87;;
13985;SDS011;7067;51.832;8.296;2023-02-22T07:21:26;16.00;;;13.63;;
13985;SDS011;7067;51.832;8.296;2023-02-22T07:23:53;15.80;;;13.90;;
13985;SDS011;7067;51.832;8.296;2023-02-22T07:26:19;16.97;;;13.57;;
13985;SDS011;7067;51.832;8.296;2023-02-22T07:28:45;15.90;;;14.27;;
13985;SDS011;7067;51.832;8.296;2023-02-22T07:31:11;15.10;;;13.77;;
13985;SDS011;7067;51.832;8.296;2023-02-22T07:33:36;13.40;;;12.30;;
13985;SDS011;7067;51.832;8.296;2023-02-22T07:36:01;14.30;;;13.03;;
13985;SDS011;7067;51.832;8.296;2023-02-22T07:38:27;14.03;;;12.50;;
13985;SDS011;7067;51.832;8.296;2023-02-22T07:40:52;15.03;;;13.60;;
13985;SDS011;7067;51.832;8.296;2023-02-22T07:43:22;14.23;;;13.07;;
13985;SDS011;7067;51.832;8.296;2023-02-22T07:45:50;15.73;;;14.17;;
13985;SDS011;7067;51.832;8.296;2023-02-22T07:48:17;18.87;;;13.47;;
13985;SDS011;7067;51.832;8.296;2023-02-22T07:50:43;22.00;;;14.93;;
13985;SDS011;7067;51.832;8.296;2023-02-22T07:53:13;15.80;;;14.30;;
13985;SDS011;7067;51.832;8.296;2023-02-22T07:55:40;15.55;;;14.30;;
13985;SDS011;7067;51.832;8.296;2023-02-22T07:58:06;14.65;;;13.48;;
13985;SDS011;7067;51.832;8.296;2023-02-22T08:02:59;15.00;;;13.80;;
13985;SDS011;7067;51.832;8.296;2023-02-22T08:05:26;26.15;;;15.60;;
13985;SDS011;7067;51.832;8.296;2023-02-22T08:07:51;17.30;;;15.73;;
13985;SDS011;7067;51.832;8.296;2023-02-22T08:10:18;20.42;;;15.45;;
13985;SDS011;7067;51.832;8.296;2023-02-22T08:12:44;20.30;;;18.13;;
13985;SDS011;7067;51.832;8.296;2023-02-22T08:15:20;19.80;;;17.20;;
13985;SDS011;7067;51.832;8.296;2023-02-22T08:17:52;22.42;;;18.98;;
13985;SDS011;7067;51.832;8.296;2023-02-22T08:20:18;23.35;;;19.40;;
13985;SDS011;7067;51.832;8.296;2023-02-22T08:22:44;25.45;;;20.20;;
13985;SDS011;7067;51.832;8.296;2023-02-22T08:25:10;31.45;;;22.90;;
13985;SDS011;7067;51.832;8.296;2023-02-22T08:27:36;30.15;;;22.90;;
13985;SDS011;7067;51.832;8.296;2023-02-22T08:30:02;33.97;;;24.08;;
13985;SDS011;7067;51.832;8.296;2023-02-22T08:32:28;46.42;;;26.63;;
13985;SDS011;7067;51.832;8.296;2023-02-22T08:34:53;38.47;;;26.13;;
13985;SDS011;7067;51.832;8.296;2023-02-22T08:37:18;46.88;;;28.15;;
13985;SDS011;7067;51.832;8.296;2023-02-22T08:39:44;50.42;;;29.92;;
13985;SDS011;7067;51.832;8.296;2023-02-22T08:42:09;54.88;;;32.42;;
13985;SDS011;7067;51.832;8.296;2023-02-22T08:44:35;57.20;;;33.95;;
13985;SDS011;7067;51.832;8.296;2023-02-22T08:47:02;63.50;;;36.13;;
13985;SDS011;7067;51.832;8.296;2023-02-22T08:49:27;73.97;;;37.28;;
13985;SDS011;7067;51.832;8.296;2023-02-22T08:51:52;63.35;;;38.10;;
13985;SDS011;7067;51.832;8.296;2023-02-22T08:54:18;80.18;;;40.85;;
13985;SDS011;7067;51.832;8.296;2023-02-22T08:56:43;66.28;;;39.40;;
13985;SDS011;7067;51.832;8.296;2023-02-22T08:59:09;68.22;;;36.75;;
13985;SDS011;7067;51.832;8.296;2023-02-22T09:01:34;70.45;;;39.25;;
13985;SDS011;7067;51.832;8.296;2023-02-22T09:04:00;69.97;;;40.30;;
13985;SDS011;7067;51.832;8.296;2023-02-22T09:06:26;94.75;;;38.75;;
13985;SDS011;7067;51.832;8.296;2023-02-22T09:08:52;63.00;;;38.20;;
13985;SDS011;7067;51.832;8.296;2023-02-22T09:11:17;61.65;;;38.55;;
13985;SDS011;7067;51.832;8.296;2023-02-22T09:13:42;63.10;;;38.22;;
13985;SDS011;7067;51.832;8.296;2023-02-22T09:16:08;56.78;;;36.92;;
13985;SDS011;7067;51.832;8.296;2023-02-22T09:18:33;57.58;;;39.47;;
13985;SDS011;7067;51.832;8.296;2023-02-22T09:20:58;59.80;;;38.67;;
13985;SDS011;7067;51.832;8.296;2023-02-22T09:23:24;62.80;;;38.47;;
13985;SDS011;7067;51.832;8.296;2023-02-22T09:25:50;60.25;;;37.55;;
13985;SDS011;7067;51.832;8.296;2023-02-22T09:28:15;57.72;;;38.03;;
13985;SDS011;7067;51.832;8.296;2023-02-22T09:30:41;54.25;;;37.72;;
13985;SDS011;7067;51.832;8.296;2023-02-22T09:33:07;56.10;;;36.85;;
13985;SDS011;7067;51.832;8.296;2023-02-22T09:35:36;68.82;;;39.13;;
13985;SDS011;7067;51.832;8.296;2023-02-22T09:38:06;56.80;;;37.22;;
13985;SDS011;7067;51.832;8.296;2023-02-22T09:40:31;52.83;;;35.90;;
13985;SDS011;7067;51.832;8.296;2023-02-22T09:45:27;51.25;;;33.67;;
13985;SDS011;7067;51.832;8.296;2023-02-22T09:48:00;68.88;;;36.33;;
13985;SDS011;7067;51.832;8.296;2023-02-22T09:50:32;60.80;;;35.05;;
13985;SDS011;7067;51.832;8.296;2023-02-22T09:53:07;51.78;;;34.42;;
13985;SDS011;7067;51.832;8.296;2023-02-22T09:55:43;56.83;;;33.55;;
13985;SDS011;7067;51.832;8.296;2023-02-22T09:58:21;41.17;;;30.48;;
13985;SDS011;7067;51.832;8.296;2023-02-22T10:00:51;44.53;;;29.23;;
13985;SDS011;7067;51.832;8.296;2023-02-22T10:03:24;42.53;;;29.23;;
13985;SDS011;7067;51.832;8.296;2023-02-22T10:05:59;40.17;;;30.58;;
13985;SDS011;7067;51.832;8.296;2023-02-22T10:08:27;41.95;;;29.17;;
13985;SDS011;7067;51.832;8.296;2023-02-22T10:16:35;58.15;;;31.15;;
13985;SDS011;7067;51.832;8.296;2023-02-22T10:24:45;68.32;;;26.63;;
13985;SDS011;7067;51.832;8.296;2023-02-22T10:27:18;47.97;;;25.42;;
13985;SDS011;7067;51.832;8.296;2023-02-22T10:29:45;37.05;;;24.25;;
13985;SDS011;7067;51.832;8.296;2023-02-22T10:32:23;51.88;;;25.15;;
13985;SDS011;7067;51.832;8.296;2023-02-22T10:34:52;28.77;;;23.27;;
13985;SDS011;7067;51.832;8.296;2023-02-22T10:37:29;30.95;;;22.38;;
13985;SDS011;7067;51.832;8.296;2023-02-22T10:40:17;26.23;;;20.63;;
13985;SDS011;7067;51.832;8.296;2023-02-22T10:42:46;29.45;;;22.08;;
13985;SDS011;7067;51.832;8.296;2023-02-22T10:47:53;66.32;;;24.67;;
13985;SDS011;7067;51.832;8.296;2023-02-22T10:50:20;27.83;;;19.40;;
13985;SDS011;7067;51.832;8.296;2023-02-22T10:52:46;53.78;;;21.90;;
13985;SDS011;7067;51.832;8.296;2023-02-22T10:55:13;24.02;;;19.55;;
13985;SDS011;7067;51.832;8.296;2023-02-22T10:57:40;33.80;;;20.58;;
13985;SDS011;7067;51.832;8.296;2023-02-22T11:00:20;40.45;;;20.00;;
13985;SDS011;7067;51.832;8.296;2023-02-22T11:03:02;24.83;;;18.95;;
13985;SDS011;7067;51.832;8.296;2023-02-22T11:10:44;63.35;;;21.55;;
13985;SDS011;7067;51.832;8.296;2023-02-22T11:13:32;54.05;;;18.80;;
13985;SDS011;7067;51.832;8.296;2023-02-22T11:16:26;23.92;;;16.98;;
13985;SDS011;7067;51.832;8.296;2023-02-22T11:18:50;36.97;;;18.70;;
13985;SDS011;7067;51.832;8.296;2023-02-22T11:21:24;40.67;;;19.10;;
13985;SDS011;7067;51.832;8.296;2023-02-22T11:23:50;23.02;;;17.75;;
13985;SDS011;7067;51.832;8.296;2023-02-22T11:26:25;20.45;;;17.15;;
13985;SDS011;7067;51.832;8.296;2023-02-22T11:28:51;65.00;;;18.90;;
13985;SDS011;7067;51.832;8.296;2023-02-22T11:33:52;43.40;;;16.77;;
13985;SDS011;7067;51.832;8.296;2023-02-22T11:36:35;28.60;;;14.95;;
13985;SDS011;7067;51.832;8.296;2023-02-22T11:39:05;16.53;;;14.50;;
13985;SDS011;7067;51.832;8.296;2023-02-22T11:41:35;67.43;;;19.02;;
13985;SDS011;7067;51.832;8.296;2023-02-22T11:46:45;61.28;;;17.10;;
13985;SDS011;7067;51.832;8.296;2023-02-22T11:49:11;19.38;;;14.32;;
13985;SDS011;7067;51.832;8.296;2023-02-22T12:19:33;63.30;;;18.33;;
13985;SDS011;7067;51.832;8.296;2023-02-22T12:22:02;10.20;;;9.23;;
13985;SDS011;7067;51.832;8.296;2023-02-22T12:24:36;53.92;;;14.60;;
13985;SDS011;7067;51.832;8.296;2023-02-22T12:27:29;31.92;;;11.38;;
13985;SDS011;7067;51.832;8.296;2023-02-22T12:29:57;11.07;;;8.85;;
13985;SDS011;7067;51.832;8.296;2023-02-22T12:35:11;52.78;;;14.38;;
13985;SDS011;7067;51.832;8.296;2023-02-22T12:45:50;54.33;;;12.15;;
13985;SDS011;7067;51.832;8.296;2023-02-22T12:48:26;50.13;;;11.98;;
13985;SDS011;7067;51.832;8.296;2023-02-22T12:50:56;47.10;;;12.02;;
13985;SDS011;7067;51.832;8.296;2023-02-22T12:53:30;24.33;;;9.67;;
13985;SDS011;7067;51.832;8.296;2023-02-22T12:56:09;53.67;;;12.07;;
13985;SDS011;7067;51.832;8.296;2023-02-22T12:58:44;42.85;;;11.38;;
13985;SDS011;7067;51.832;8.296;2023-02-22T13:01:15;32.20;;;10.15;;
13985;SDS011;7067;51.832;8.296;2023-02-22T13:03:44;27.55;;;10.07;;
13985;SDS011;7067;51.832;8.296;2023-02-22T13:12:37;35.78;;;11.45;;
13985;SDS011;7067;51.832;8.296;2023-02-22T13:19:54;38.17;;;10.10;;
13985;SDS011;7067;51.832;8.296;2023-02-22T13:25:25;56.00;;;13.32;;
13985;SDS011;7067;51.832;8.296;2023-02-22T13:44:51;18.30;;;8.63;;
13985;SDS011;7067;51.832;8.296;2023-02-22T13:47:39;31.58;;;10.18;;
13985;SDS011;7067;51.832;8.296;2023-02-22T13:52:49;30.40;;;7.55;;
13985;SDS011;7067;51.832;8.296;2023-02-22T13:55:20;37.20;;;9.55;;
13985;SDS011;7067;51.832;8.296;2023-02-22T13:57:47;19.92;;;8.95;;
13985;SDS011;7067;51.832;8.296;2023-02-22T14:13:08;18.75;;;12.70;;
13985;SDS011;7067;51.832;8.296;2023-02-22T14:15:35;24.60;;;12.02;;
13985;SDS011;7067;51.832;8.296;2023-02-22T14:18:01;12.65;;;10.02;;
13985;SDS011;7067;51.832;8.296;2023-02-22T14:20:31;22.13;;;13.45;;
13985;SDS011;7067;51.832;8.296;2023-02-22T14:25:48;46.13;;;14.85;;
13985;SDS011;7067;51.832;8.296;2023-02-22T14:31:08;34.83;;;13.93;;
13985;SDS011;7067;51.832;8.296;2023-02-22T14:36:18;27.52;;;12.75;;
13985;SDS011;7067;51.832;8.296;2023-02-22T14:38:45;15.50;;;13.30;;
13985;SDS011;7067;51.832;8.296;2023-02-22T14:41:11;31.10;;;13.43;;
13985;SDS011;7067;51.832;8.296;2023-02-22T14:43:38;16.67;;;11.20;;
13985;SDS011;7067;51.832;8.296;2023-02-22T14:46:06;16.08;;;12.18;;
13985;SDS011;7067;51.832;8.296;2023-02-22T14:48:35;32.72;;;14.73;;
13985;SDS011;7067;51.832;8.296;2023-02-22T14:51:06;17.15;;;12.63;;
13985;SDS011;7067;51.832;8.296;2023-02-22T14:53:39;26.73;;;12.52;;
13985;SDS011;7067;51.832;8.296;2023-02-22T15:04:00;21.60;;;13.18;;
13985;SDS011;7067;51.832;8.296;2023-02-22T15:06:46;22.33;;;13.98;;
13985;SDS011;7067;51.832;8.296;2023-02-22T15:09:16;14.02;;;11.60;;
13985;SDS011;7067;51.832;8.296;2023-02-22T15:11:51;16.23;;;12.82;;
13985;SDS011;7067;51.832;8.296;2023-02-22T15:14:33;14.50;;;12.50;;
13985;SDS011;7067;51.832;8.296;2023-02-22T15:17:22;16.73;;;12.50;;
13985;SDS011;7067;51.832;8.296;2023-02-22T15:19:48;21.48;;;12.80;;
13985;SDS011;7067;51.832;8.296;2023-02-22T15:22:21;24.77;;;12.30;;
13985;SDS011;7067;51.832;8.296;2023-02-22T15:25:03;13.00;;;11.25;;
13985;SDS011;7067;51.832;8.296;2023-02-22T15:27:29;13.30;;;12.00;;
13985;SDS011;7067;51.832;8.296;2023-02-22T15:30:00;15.32;;;13.23;;
13985;SDS011;7067;51.832;8.296;2023-02-22T15:32:30;16.88;;;13.68;;
13985;SDS011;7067;51.832;8.296;2023-02-22T15:35:12;22.25;;;14.57;;
13985;SDS011;7067;51.832;8.296;2023-02-22T15:37:56;21.02;;;13.43;;
13985;SDS011;7067;51.832;8.296;2023-02-22T15:40:22;15.27;;;12.57;;
13985;SDS011;7067;51.832;8.296;2023-02-22T15:42:49;14.95;;;12.93;;
13985;SDS011;7067;51.832;8.296;2023-02-22T15:45:18;14.68;;;13.15;;
13985;SDS011;7067;51.832;8.296;2023-02-22T15:47:44;14.70;;;13.23;;
13985;SDS011;7067;51.832;8.296;2023-02-22T15:52:48;20.02;;;15.40;;
13985;SDS011;7067;51.832;8.296;2023-02-22T15:55:20;22.58;;;14.57;;
13985;SDS011;7067;51.832;8.296;2023-02-22T15:57:47;20.77;;;15.52;;
13985;SDS011;7067;51.832;8.296;2023-02-22T16:00:45;25.40;;;14.35;;
13985;SDS011;7067;51.832;8.296;2023-02-22T16:03:06;16.90;;;14.45;;
13985;SDS011;7067;51.832;8.296;2023-02-22T16:05:38;18.00;;;14.23;;
13985;SDS011;7067;51.832;8.296;2023-02-22T16:08:28;15.10;;;13.50;;
13985;SDS011;7067;51.832;8.296;2023-02-22T16:11:00;15.63;;;14.02;;
13985;SDS011;7067;51.832;8.296;2023-02-22T16:13:28;21.05;;;16.40;;
13985;SDS011;7067;51.832;8.296;2023-02-22T16:15:57;19.33;;;16.23;;
13985;SDS011;7067;51.832;8.296;2023-02-22T16:18:41;21.65;;;15.25;;
13985;SDS011;7067;51.832;8.296;2023-02-22T16:21:08;18.45;;;15.48;;
13985;SDS011;7067;51.832;8.296;2023-02-22T16:26:28;20.88;;;17.10;;
13985;SDS011;7067;51.832;8.296;2023-02-22T16:31:25;38.63;;;25.98;;
13985;SDS011;7067;51.832;8.296;2023-02-22T16:33:52;24.45;;;21.80;;
13985;SDS011;7067;51.832;8.296;2023-02-22T16:36:18;24.90;;;19.83;;
13985;SDS011;7067;51.832;8.296;2023-02-22T16:38:46;21.90;;;17.30;;
13985;SDS011;7067;51.832;8.296;2023-02-22T16:41:13;22.67;;;19.10;;
13985;SDS011;7067;51.832;8.296;2023-02-22T16:43:43;33.03;;;22.55;;
13985;SDS011;7067;51.832;8.296;2023-02-22T16:46:11;25.92;;;21.67;;
13985;SDS011;7067;51.832;8.296;2023-02-22T16:48:36;23.95;;;20.70;;
13985;SDS011;7067;51.832;8.296;2023-02-22T16:51:08;23.33;;;19.67;;
13985;SDS011;7067;51.832;8.296;2023-02-22T16:53:38;23.05;;;20.35;;
13985;SDS011;7067;51.832;8.296;2023-02-22T16:56:04;25.27;;;20.35;;
13985;SDS011;7067;51.832;8.296;2023-02-22T16:58:33;31.73;;;23.20;;
13985;SDS011;7067;51.832;8.296;2023-02-22T17:01:01;46.50;;;23.23;;
13985;SDS011;7067;51.832;8.296;2023-02-22T17:03:26;29.42;;;22.27;;
13985;SDS011;7067;51.832;8.296;2023-02-22T17:05:51;31.35;;;21.92;;
13985;SDS011;7067;51.832;8.296;2023-02-22T17:08:17;30.27;;;23.20;;
13985;SDS011;7067;51.832;8.296;2023-02-22T17:10:42;29.10;;;23.08;;
13985;SDS011;7067;51.832;8.296;2023-02-22T17:13:08;29.45;;;23.75;;
13985;SDS011;7067;51.832;8.296;2023-02-22T17:15:34;24.58;;;21.92;;
13985;SDS011;7067;51.832;8.296;2023-02-22T17:18:01;25.58;;;22.80;;
13985;SDS011;7067;51.832;8.296;2023-02-22T17:20:28;29.38;;;24.25;;
13985;SDS011;7067;51.832;8.296;2023-02-22T17:22:58;41.53;;;24.45;;
13985;SDS011;7067;51.832;8.296;2023-02-22T17:25:26;30.48;;;23.55;;
13985;SDS011;7067;51.832;8.296;2023-02-22T17:27:55;26.70;;;23.75;;
13985;SDS011;7067;51.832;8.296;2023-02-22T17:30:20;35.25;;;25.58;;